Time;durP1;ratioP1;P1;durP2;ratioP2;P2;SDS_P1;SDS_P2;PMS_P1;PMS_P2;Temp;Humidity;BMP_temperature;BMP_pressure;BME280_temperature;BME280_humidity;BME280_pressure;Samples;Min_cycle;Max_cycle;Signal;HPM_P1;HPM_P2
2023/04/23 00:00:28;;;;;;;32.93;10.83;;;16.60;56.70;;;;;;5068361;28;20203;-85
2023/04/23 00:03:03;;;;;;;54.87;11.60;;;16.60;56.70;;;;;;5063848;28;20224;-87
2023/04/23 00:05:32;;;;;;;45.33;11.77;;;16.60;56.70;;;;;;5067733;28;20322;-86
2023/04/23 00:08:02;;;;;;;35.57;10.70;;;16.60;56.70;;;;;;5068448;28;20203;-88
2023/04/23 00:10:30;;;;;;;45.03;11.70;;;16.60;56.70;;;;;;5067821;28;20273;-87
2023/04/23 00:12:57;;;;;;;41.40;11.17;;;16.60;56.70;;;;;;5063117;28;20234;-88
2023/04/23 00:15:25;;;;;;;29.37;10.17;;;16.60;56.70;;;;;;5069465;28;20199;-87
2023/04/23 00:17:52;;;;;;;32.80;10.17;;;16.60;56.70;;;;;;5069501;28;20278;-87
2023/04/23 00:20:20;;;;;;;24.03;9.33;;;16.60;56.70;;;;;;5066215;28;20618;-87
2023/04/23 00:22:47;;;;;;;50.80;11.77;;;16.50;56.60;;;;;;5066949;28;20296;-87
2023/04/23 00:25:16;;;;;;;35.20;11.30;;;16.50;56.70;;;;;;5067460;28;20254;-88
2023/04/23 00:27:43;;;;;;;41.80;11.20;;;16.50;56.70;;;;;;5068251;28;20210;-86
2023/04/23 00:30:11;;;;;;;22.73;9.50;;;16.50;56.70;;;;;;5069209;28;20309;-87
2023/04/23 00:32:38;;;;;;;41.37;11.40;;;16.50;56.70;;;;;;5062880;28;20229;-86
2023/04/23 00:35:06;;;;;;;33.43;10.83;;;16.50;56.70;;;;;;5067792;28;20221;-86
2023/04/23 00:37:34;;;;;;;33.00;10.77;;;16.50;56.70;;;;;;5068221;28;20199;-87
2023/04/23 00:40:03;;;;;;;38.10;11.33;;;16.50;56.80;;;;;;5067971;28;20247;-87
2023/04/23 00:42:30;;;;;;;29.70;10.87;;;16.50;56.80;;;;;;5067943;28;20958;-87
2023/04/23 00:44:57;;;;;;;24.90;9.73;;;16.50;56.70;;;;;;5068785;28;20650;-86
2023/04/23 00:47:29;;;;;;;27.20;10.13;;;16.50;56.70;;;;;;5065532;28;20202;-87
2023/04/23 00:49:56;;;;;;;31.73;11.17;;;16.50;56.80;;;;;;5066478;28;20205;-88
2023/04/23 00:52:23;;;;;;;63.77;12.77;;;16.50;56.80;;;;;;5066621;28;20285;-87
2023/04/23 00:54:51;;;;;;;60.30;12.87;;;16.40;56.70;;;;;;5061356;28;20208;-89
2023/04/23 00:57:18;;;;;;;27.97;10.93;;;16.40;56.70;;;;;;5065965;28;20277;-91
2023/04/23 00:59:46;;;;;;;27.27;9.77;;;16.40;56.70;;;;;;5054494;28;20291;-90
2023/04/23 01:02:13;;;;;;;28.47;11.10;;;16.40;56.70;;;;;;5061753;28;20214;-87
2023/04/23 01:04:43;;;;;;;35.50;10.87;;;16.40;56.70;;;;;;5066541;28;20343;-89
2023/04/23 01:07:11;;;;;;;33.00;11.40;;;16.40;57.30;;;;;;5067717;28;20286;-90
2023/04/23 01:09:38;;;;;;;36.67;11.53;;;16.40;56.80;;;;;;5063727;28;20200;-88
2023/04/23 01:12:07;;;;;;;37.87;11.57;;;16.40;57.00;;;;;;5067402;28;20660;-90
2023/04/23 01:14:34;;;;;;;33.90;10.97;;;16.40;56.80;;;;;;5067451;28;20304;-89
2023/04/23 01:17:01;;;;;;;82.43;14.70;;;16.40;56.80;;;;;;5065494;28;20369;-90
2023/04/23 01:19:32;;;;;;;25.60;10.30;;;16.40;56.80;;;;;;5064625;28;20372;-89
2023/04/23 01:22:00;;;;;;;42.27;11.07;;;16.40;56.80;;;;;;5063917;28;20199;-89
2023/04/23 01:24:29;;;;;;;43.00;11.50;;;16.40;56.80;;;;;;5066660;28;20636;-87
2023/04/23 01:26:57;;;;;;;45.07;11.70;;;16.40;56.80;;;;;;5063534;28;20197;-86
2023/04/23 01:29:24;;;;;;;32.13;11.10;;;16.40;56.80;;;;;;5065429;28;20316;-86
2023/04/23 01:31:52;;;;;;;49.10;11.77;;;16.40;56.80;;;;;;5062765;28;20219;-88
2023/04/23 01:34:21;;;;;;;26.30;9.97;;;16.40;56.80;;;;;;5068165;28;20274;-87
2023/04/23 01:36:48;;;;;;;27.93;10.60;;;16.40;56.80;;;;;;5065875;28;20872;-86
2023/04/23 01:39:15;;;;;;;48.43;12.33;;;16.30;56.80;;;;;;5061613;28;20232;-87
2023/04/23 01:41:44;;;;;;;30.13;10.07;;;16.30;56.80;;;;;;5063511;28;20201;-88
2023/04/23 01:44:11;;;;;;;27.93;10.03;;;16.30;56.80;;;;;;5055881;28;20342;-87
2023/04/23 01:46:38;;;;;;;45.90;11.33;;;16.30;56.80;;;;;;5063329;28;20216;-87
2023/04/23 01:49:05;;;;;;;34.87;10.60;;;16.30;56.80;;;;;;5065053;28;20203;-87
2023/04/23 01:51:32;;;;;;;52.80;12.23;;;16.30;56.80;;;;;;5063390;28;20204;-87
2023/04/23 01:54:00;;;;;;;35.23;10.47;;;16.30;56.80;;;;;;5066479;28;20342;-87
2023/04/23 01:56:29;;;;;;;20.90;9.57;;;16.30;56.80;;;;;;5065423;28;20206;-86
2023/04/23 01:58:57;;;;;;;36.87;11.20;;;16.30;56.80;;;;;;5065189;28;20615;-90
2023/04/23 02:01:24;;;;;;;44.90;11.70;;;16.30;56.80;;;;;;5066622;28;20315;-89
2023/04/23 02:03:52;;;;;;;27.73;10.00;;;16.30;56.90;;;;;;5067099;28;20305;-90
2023/04/23 02:06:19;;;;;;;26.80;9.67;;;16.30;56.80;;;;;;5067941;28;20238;-88
2023/04/23 02:08:45;;;;;;;28.57;9.93;;;16.30;56.80;;;;;;5066646;28;20208;-89
2023/04/23 02:11:12;;;;;;;40.70;11.80;;;16.30;56.90;;;;;;5066896;28;20205;-89
2023/04/23 02:13:39;;;;;;;42.00;11.30;;;16.30;56.90;;;;;;5063852;28;20287;-91
2023/04/23 02:16:08;;;;;;;32.90;10.20;;;16.30;56.90;;;;;;5054396;28;20345;-91
2023/04/23 02:18:35;;;;;;;27.97;9.60;;;16.20;56.80;;;;;;5065225;28;20203;-89
2023/04/23 02:21:03;;;;;;;29.80;9.97;;;16.30;56.90;;;;;;5064494;28;20292;-91
2023/04/23 02:23:30;;;;;;;23.90;10.37;;;16.20;56.90;;;;;;5066915;28;20192;-90
2023/04/23 02:25:57;;;;;;;26.53;9.87;;;16.30;57.00;;;;;;5066515;28;20312;-89
2023/04/23 02:28:24;;;;;;;29.73;11.03;;;16.20;56.90;;;;;;5067598;28;20282;-87
2023/04/23 02:30:51;;;;;;;30.10;10.57;;;16.20;56.90;;;;;;5066498;28;20313;-87
2023/04/23 02:33:19;;;;;;;31.60;9.60;;;16.20;56.90;;;;;;5066574;28;21144;-86
2023/04/23 02:35:46;;;;;;;22.87;9.77;;;16.20;56.90;;;;;;5068792;28;20201;-89
2023/04/23 02:38:13;;;;;;;30.73;10.23;;;16.20;56.90;;;;;;5071287;28;20281;-87
2023/04/23 02:40:40;;;;;;;39.40;10.37;;;16.20;56.90;;;;;;5068811;28;20290;-88
2023/04/23 02:43:07;;;;;;;46.37;11.30;;;16.20;56.90;;;;;;5070172;28;20208;-86
2023/04/23 02:45:34;;;;;;;44.17;10.83;;;16.20;57.00;;;;;;5069666;28;20302;-87
2023/04/23 02:48:01;;;;;;;41.57;10.93;;;16.20;56.90;;;;;;5068459;28;20366;-88
2023/04/23 02:50:29;;;;;;;32.93;9.77;;;16.20;56.90;;;;;;5069835;28;20236;-87
2023/04/23 02:52:56;;;;;;;34.60;10.27;;;16.20;56.90;;;;;;5066356;28;20300;-87
2023/04/23 02:55:24;;;;;;;32.47;9.73;;;16.20;57.00;;;;;;5056800;28;20283;-87
2023/04/23 02:57:52;;;;;;;61.13;12.43;;;16.20;57.00;;;;;;5068503;28;20192;-87
2023/04/23 03:00:19;;;;;;;29.73;9.90;;;16.20;56.90;;;;;;5063673;28;20211;-86
2023/04/23 03:02:46;;;;;;;27.30;10.03;;;16.20;56.90;;;;;;5068906;28;20294;-86
2023/04/23 03:05:13;;;;;;;26.93;9.23;;;16.20;56.90;;;;;;5068725;28;20234;-86
2023/04/23 03:07:41;;;;;;;44.23;11.33;;;16.20;56.90;;;;;;5069417;28;20258;-87
2023/04/23 03:10:09;;;;;;;27.37;9.53;;;16.20;56.90;;;;;;5068294;28;20800;-87
2023/04/23 03:12:36;;;;;;;28.70;9.23;;;16.10;56.80;;;;;;5070190;28;20211;-87
2023/04/23 03:15:03;;;;;;;26.07;9.23;;;16.10;56.80;;;;;;5068558;28;20986;-87
2023/04/23 03:17:30;;;;;;;33.43;9.50;;;16.20;56.90;;;;;;5069714;28;20736;-87
2023/04/23 03:19:57;;;;;;;68.00;13.07;;;16.20;57.00;;;;;;5065845;28;20294;-86
2023/04/23 03:22:24;;;;;;;29.63;10.07;;;16.20;56.90;;;;;;5069835;28;20192;-86
2023/04/23 03:24:52;;;;;;;32.40;9.77;;;16.10;56.90;;;;;;5068519;28;20213;-86
2023/04/23 03:27:19;;;;;;;27.03;9.07;;;16.10;56.80;;;;;;5069733;28;20568;-86
2023/04/23 03:29:46;;;;;;;44.50;9.87;;;16.10;56.90;;;;;;5065986;28;20310;-87
2023/04/23 03:32:13;;;;;;;23.67;8.47;;;16.10;56.80;;;;;;5068341;28;20223;-87
2023/04/23 03:34:40;;;;;;;26.37;9.40;;;16.10;56.90;;;;;;5068507;28;20192;-86
2023/04/23 03:37:08;;;;;;;41.90;10.07;;;16.10;56.90;;;;;;5066495;28;20712;-87
2023/04/23 03:39:35;;;;;;;27.47;9.23;;;16.10;57.50;;;;;;5069354;28;20210;-87
2023/04/23 03:42:04;;;;;;;46.87;11.00;;;16.10;56.90;;;;;;5062230;28;20287;-87
2023/04/23 03:44:31;;;;;;;25.87;9.33;;;16.10;56.90;;;;;;5067787;28;20575;-87
2023/04/23 03:46:58;;;;;;;40.37;10.20;;;16.10;56.90;;;;;;5063870;28;20226;-86
2023/04/23 03:49:28;;;;;;;29.10;8.97;;;16.10;56.90;;;;;;5067757;28;20207;-86
2023/04/23 03:51:55;;;;;;;45.40;10.53;;;16.10;56.90;;;;;;5057438;28;20233;-87
2023/04/23 03:54:23;;;;;;;56.00;11.73;;;16.00;56.80;;;;;;5063048;28;20337;-87
2023/04/23 03:56:50;;;;;;;60.23;11.67;;;16.00;56.80;;;;;;5065174;28;20203;-88
2023/04/23 03:59:18;;;;;;;25.30;8.60;;;16.00;56.70;;;;;;5062855;28;20301;-88
2023/04/23 04:01:47;;;;;;;29.80;9.10;;;16.00;56.80;;;;;;5067090;28;20207;-87
2023/04/23 04:04:14;;;;;;;28.43;9.60;;;16.00;56.80;;;;;;5067125;28;20568;-89
2023/04/23 04:06:41;;;;;;;31.20;9.23;;;16.00;56.80;;;;;;5066511;28;20248;-88
2023/04/23 04:09:08;;;;;;;20.83;8.47;;;16.00;56.80;;;;;;5067187;28;20211;-88
2023/04/23 04:11:35;;;;;;;27.57;8.80;;;16.00;56.80;;;;;;5069413;28;20212;-88
2023/04/23 04:14:02;;;;;;;24.50;8.67;;;16.00;56.80;;;;;;5066909;28;20217;-87
2023/04/23 04:16:30;;;;;;;25.43;8.77;;;15.90;56.70;;;;;;5066907;28;20215;-89
2023/04/23 04:18:57;;;;;;;48.43;11.13;;;16.00;56.80;;;;;;5067570;28;20207;-90
2023/04/23 04:21:24;;;;;;;29.10;9.33;;;15.90;56.70;;;;;;5069571;28;20294;-90
2023/04/23 04:23:52;;;;;;;30.90;9.23;;;15.90;56.70;;;;;;5069431;28;20211;-90
2023/04/23 04:26:19;;;;;;;44.80;10.27;;;15.90;56.70;;;;;;5069312;28;20224;-89
2023/04/23 04:28:46;;;;;;;27.73;9.70;;;15.90;56.70;;;;;;5069563;28;20304;-89
2023/04/23 04:31:14;;;;;;;46.53;10.60;;;15.90;56.70;;;;;;5066142;28;20291;-90
2023/04/23 04:33:45;;;;;;;49.80;10.83;;;15.90;56.70;;;;;;5068382;28;20279;-89
2023/04/23 04:36:12;;;;;;;24.67;9.20;;;15.90;56.70;;;;;;5050974;28;20248;-90
2023/04/23 04:38:40;;;;;;;34.47;9.13;;;15.90;56.70;;;;;;5060337;28;20724;-90
2023/04/23 04:41:07;;;;;;;52.57;11.40;;;15.90;56.70;;;;;;5066746;28;20209;-90
2023/04/23 04:43:34;;;;;;;33.47;9.53;;;15.90;56.70;;;;;;5069546;28;20206;-90
2023/04/23 04:46:04;;;;;;;31.80;9.20;;;15.90;56.70;;;;;;5067294;28;20230;-90
2023/04/23 04:48:31;;;;;;;29.07;9.20;;;15.80;56.60;;;;;;5065343;28;20283;-90
2023/04/23 04:51:02;;;;;;;28.77;10.10;;;15.80;56.60;;;;;;5069008;28;20435;-89
2023/04/23 04:53:29;;;;;;;39.57;10.10;;;15.80;56.60;;;;;;5066353;28;20201;-90
2023/04/23 04:55:56;;;;;;;44.37;10.63;;;15.80;56.60;;;;;;5068402;28;20303;-90
2023/04/23 04:58:23;;;;;;;28.70;9.23;;;15.80;56.60;;;;;;5068831;28;20287;-90
2023/04/23 05:00:50;;;;;;;45.00;10.13;;;15.80;56.60;;;;;;5068184;28;20239;-89
2023/04/23 05:03:17;;;;;;;26.93;9.07;;;15.80;56.70;;;;;;5068947;28;20723;-90
2023/04/23 05:05:47;;;;;;;32.90;9.53;;;15.80;56.70;;;;;;5069208;28;21018;-91
2023/04/23 05:08:16;;;;;;;49.43;10.13;;;15.80;56.70;;;;;;5066109;28;20211;-90
2023/04/23 05:10:43;;;;;;;30.03;9.30;;;15.80;56.80;;;;;;5068427;28;20188;-90
2023/04/23 05:13:10;;;;;;;28.17;9.13;;;15.80;56.80;;;;;;5068866;28;20740;-90
2023/04/23 05:15:37;;;;;;;30.53;9.13;;;15.80;56.80;;;;;;5066027;28;20207;-90
2023/04/23 05:18:06;;;;;;;40.93;9.83;;;15.70;56.70;;;;;;5064367;28;20291;-89
2023/04/23 05:20:33;;;;;;;41.50;9.90;;;15.80;56.90;;;;;;5064942;28;20206;-88
2023/04/23 05:23:01;;;;;;;35.00;9.03;;;15.70;56.70;;;;;;5066787;28;20287;-89
2023/04/23 05:25:30;;;;;;;25.93;8.57;;;15.70;56.70;;;;;;5061694;28;20209;-89
2023/04/23 05:27:58;;;;;;;26.80;8.60;;;15.70;56.70;;;;;;5066591;28;20275;-90
2023/04/23 05:30:26;;;;;;;34.43;9.27;;;15.80;56.90;;;;;;5067807;28;20220;-90
2023/04/23 05:32:53;;;;;;;57.37;11.03;;;15.70;56.80;;;;;;5066380;28;20200;-91
2023/04/23 05:35:20;;;;;;;29.93;8.50;;;15.70;56.80;;;;;;5067288;28;20281;-89
2023/04/23 05:37:47;;;;;;;33.77;8.80;;;15.70;56.80;;;;;;5065003;28;20207;-89
2023/04/23 05:40:14;;;;;;;29.50;8.83;;;15.70;56.80;;;;;;5067743;28;20316;-90
2023/04/23 05:42:42;;;;;;;35.90;9.50;;;15.70;56.80;;;;;;5068162;28;20775;-89
2023/04/23 05:45:10;;;;;;;50.53;10.43;;;15.80;56.90;;;;;;5066241;28;20298;-90
2023/04/23 05:47:37;;;;;;;31.97;9.07;;;15.70;56.90;;;;;;5065797;28;20232;-90
2023/04/23 05:50:05;;;;;;;32.60;8.60;;;15.70;57.00;;;;;;5068154;28;20238;-89
2023/04/23 05:52:36;;;;;;;22.27;7.80;;;15.70;57.10;;;;;;5067116;28;20314;-90
2023/04/23 05:55:03;;;;;;;29.30;8.07;;;15.70;57.00;;;;;;5065856;28;20205;-90
2023/04/23 05:57:30;;;;;;;21.60;7.43;;;15.80;57.10;;;;;;5067138;28;20205;-89
2023/04/23 05:59:58;;;;;;;23.27;7.43;;;15.70;57.00;;;;;;5067825;28;20287;-89
2023/04/23 06:02:25;;;;;;;31.07;8.60;;;15.70;57.00;;;;;;5066480;28;20580;-89
2023/04/23 06:04:52;;;;;;;25.23;7.67;;;15.70;57.00;;;;;;5065885;28;20637;-88
2023/04/23 06:07:19;;;;;;;27.53;7.97;;;15.70;57.00;;;;;;5065763;28;20224;-90
2023/04/23 06:09:46;;;;;;;31.03;7.60;;;15.70;57.00;;;;;;5068911;28;20212;-89
2023/04/23 06:12:13;;;;;;;27.77;7.50;;;15.80;57.10;;;;;;5069515;28;20239;-90
2023/04/23 06:14:40;;;;;;;17.93;7.33;;;15.70;57.00;;;;;;5070582;28;20673;-89
2023/04/23 06:17:08;;;;;;;29.87;8.17;;;15.70;57.10;;;;;;5061819;28;20287;-91
2023/04/23 06:19:35;;;;;;;26.70;7.30;;;15.70;57.00;;;;;;5051202;28;20301;-89
2023/04/23 06:22:02;;;;;;;28.40;7.70;;;15.70;57.00;;;;;;5070610;28;20218;-89
2023/04/23 06:24:29;;;;;;;22.70;6.87;;;15.80;57.10;;;;;;5071636;28;20572;-90
2023/04/23 06:26:56;;;;;;;27.83;7.47;;;15.80;57.10;;;;;;5071898;28;20221;-89
2023/04/23 06:29:23;;;;;;;26.33;7.53;;;15.70;57.00;;;;;;5071420;28;20739;-88
2023/04/23 06:31:50;;;;;;;32.13;7.20;;;15.70;57.00;;;;;;5071134;28;20208;-90
2023/04/23 06:34:19;;;;;;;24.00;7.23;;;15.80;57.10;;;;;;5070227;28;20212;-90
2023/04/23 06:36:46;;;;;;;36.93;7.63;;;15.70;57.00;;;;;;5070912;28;20996;-90
2023/04/23 06:39:12;;;;;;;36.40;7.53;;;15.80;57.10;;;;;;5071345;28;20209;-89
2023/04/23 06:41:40;;;;;;;28.43;6.67;;;15.70;57.00;;;;;;5071401;28;20210;-89
2023/04/23 06:44:07;;;;;;;37.73;7.63;;;15.70;57.10;;;;;;5071185;28;20720;-89
2023/04/23 06:46:34;;;;;;;30.33;7.20;;;15.70;57.00;;;;;;5071233;28;20218;-89
2023/04/23 06:49:01;;;;;;;24.13;6.80;;;15.80;57.10;;;;;;5071262;28;20299;-89
2023/04/23 06:51:30;;;;;;;36.67;7.83;;;15.80;57.10;;;;;;5071674;28;20302;-90
2023/04/23 06:53:58;;;;;;;23.50;6.10;;;15.80;57.10;;;;;;5074998;28;20204;-90
2023/04/23 06:56:25;;;;;;;32.00;7.10;;;15.80;57.10;;;;;;5069784;28;20197;-89
2023/04/23 06:58:53;;;;;;;19.93;5.77;;;15.80;57.10;;;;;;5070514;28;20304;-89
2023/04/23 07:01:21;;;;;;;24.70;6.33;;;15.80;57.10;;;;;;5070513;28;20229;-89
2023/04/23 07:03:51;;;;;;;41.97;7.93;;;15.80;57.10;;;;;;5069353;28;20710;-89
2023/04/23 07:06:19;;;;;;;47.00;8.13;;;15.80;57.10;;;;;;5069924;28;20545;-89
2023/04/23 07:08:47;;;;;;;21.97;6.10;;;15.80;57.20;;;;;;5069791;28;20211;-90
2023/04/23 07:11:14;;;;;;;26.77;6.33;;;15.80;57.10;;;;;;5069180;28;20301;-89
2023/04/23 07:13:43;;;;;;;31.27;6.77;;;15.80;57.20;;;;;;5067645;28;20315;-90
2023/04/23 07:16:10;;;;;;;23.63;5.87;;;15.80;57.20;;;;;;5068757;28;20263;-89
2023/04/23 07:18:37;;;;;;;24.90;6.23;;;15.80;57.20;;;;;;5070693;28;20234;-89
2023/04/23 07:21:04;;;;;;;27.70;6.70;;;15.80;57.20;;;;;;5065278;28;20286;-89
2023/04/23 07:23:31;;;;;;;25.00;6.47;;;15.80;57.20;;;;;;5050302;28;20838;-89
2023/04/23 07:25:59;;;;;;;23.80;6.27;;;15.90;57.30;;;;;;5052599;28;20238;-89
2023/04/23 07:28:26;;;;;;;25.83;6.17;;;15.90;57.30;;;;;;5070239;28;20282;-89
2023/04/23 07:30:53;;;;;;;42.43;8.00;;;15.90;57.30;;;;;;5067702;28;20258;-89
2023/04/23 07:33:20;;;;;;;22.03;5.97;;;15.90;57.30;;;;;;5070326;28;20666;-90
2023/04/23 07:35:47;;;;;;;25.73;6.20;;;15.90;57.30;;;;;;5068885;28;20195;-89
2023/04/23 07:38:14;;;;;;;25.73;6.33;;;15.90;57.30;;;;;;5070537;28;20231;-89
2023/04/23 07:40:41;;;;;;;26.40;6.50;;;15.90;57.30;;;;;;5069652;28;20285;-90
2023/04/23 07:43:09;;;;;;;23.97;6.20;;;15.90;57.30;;;;;;5059867;28;20846;-90
2023/04/23 07:45:36;;;;;;;29.00;6.27;;;16.00;57.40;;;;;;5060261;28;20209;-89
2023/04/23 07:48:03;;;;;;;18.27;5.30;;;15.90;57.30;;;;;;5060953;28;20352;-89
2023/04/23 07:50:30;;;;;;;27.23;6.40;;;15.90;57.30;;;;;;5069078;28;20718;-88
2023/04/23 07:52:58;;;;;;;27.10;6.17;;;16.10;57.50;;;;;;5069338;28;20208;-89
2023/04/23 07:55:25;;;;;;;25.80;6.13;;;16.00;57.40;;;;;;5067456;28;20290;-90
2023/04/23 07:57:52;;;;;;;24.13;6.00;;;16.00;57.40;;;;;;5067436;28;20253;-89
2023/04/23 08:00:21;;;;;;;21.37;6.07;;;16.00;57.40;;;;;;5069072;28;20218;-90
2023/04/23 08:02:48;;;;;;;30.93;6.50;;;16.00;57.40;;;;;;5068480;28;20270;-90
2023/04/23 08:05:15;;;;;;;25.17;5.97;;;16.00;57.40;;;;;;5068327;28;20229;-90
2023/04/23 08:07:42;;;;;;;26.87;6.23;;;16.00;57.40;;;;;;5064679;28;20333;-90
2023/04/23 08:10:09;;;;;;;21.83;5.50;;;16.10;57.50;;;;;;5068214;28;21041;-89
2023/04/23 08:12:36;;;;;;;29.53;6.53;;;16.10;57.50;;;;;;5068645;28;20201;-90
2023/04/23 08:15:04;;;;;;;26.90;5.93;;;16.10;57.50;;;;;;5068174;28;20282;-90
2023/04/23 08:17:32;;;;;;;28.70;6.47;;;16.10;57.50;;;;;;5069674;28;20274;-90
2023/04/23 08:19:59;;;;;;;27.10;6.20;;;16.10;57.50;;;;;;5068752;28;20240;-89
2023/04/23 08:22:26;;;;;;;24.80;6.27;;;16.20;57.60;;;;;;5069354;28;20290;-90
2023/04/23 08:24:53;;;;;;;30.07;6.77;;;16.20;57.60;;;;;;5069557;28;20246;-90
2023/04/23 08:27:21;;;;;;;21.47;5.73;;;16.20;57.60;;;;;;5069477;28;20242;-91
2023/04/23 08:29:48;;;;;;;38.43;7.33;;;16.20;57.60;;;;;;5068990;28;20240;-91
2023/04/23 08:32:15;;;;;;;26.90;6.40;;;16.20;57.60;;;;;;5053850;28;20204;-90
2023/04/23 08:34:44;;;;;;;25.77;6.20;;;16.20;57.70;;;;;;5068956;28;20191;-92
2023/04/23 08:37:11;;;;;;;23.90;6.00;;;16.30;57.70;;;;;;5069223;28;20557;-90
2023/04/23 08:39:38;;;;;;;22.53;5.70;;;16.30;57.70;;;;;;5068900;28;20674;-91
2023/04/23 08:42:10;;;;;;;35.37;7.20;;;16.30;57.70;;;;;;5068790;28;20204;-91
2023/04/23 08:44:41;;;;;;;28.80;6.13;;;16.30;58.40;;;;;;5062192;28;20764;-90
2023/04/23 08:47:11;;;;;;;37.27;6.90;;;16.30;57.70;;;;;;5064668;28;20240;-90
2023/04/23 08:49:45;;;;;;;30.07;6.27;;;16.40;57.90;;;;;;5068269;28;20671;-90
2023/04/23 08:52:17;;;;;;;24.23;5.77;;;16.40;57.90;;;;;;5063080;28;20213;-91
2023/04/23 08:54:49;;;;;;;40.20;7.00;;;16.40;57.90;;;;;;5050766;28;20265;-91
2023/04/23 08:57:17;;;;;;;29.50;6.10;;;16.40;57.90;;;;;;5066338;28;20202;-90
2023/04/23 08:59:46;;;;;;;29.87;6.63;;;16.50;58.00;;;;;;5068196;28;20205;-90
2023/04/23 09:02:14;;;;;;;27.37;6.40;;;16.50;57.90;;;;;;5048854;28;20229;-90
2023/04/23 09:04:44;;;;;;;25.00;5.83;;;16.50;57.90;;;;;;5066537;28;20202;-90
2023/04/23 09:07:12;;;;;;;27.77;6.37;;;16.50;58.00;;;;;;5067533;28;20325;-90
2023/04/23 09:09:40;;;;;;;19.73;5.83;;;16.50;57.90;;;;;;5067074;28;20658;-90
2023/04/23 09:12:08;;;;;;;31.30;6.30;;;16.60;58.00;;;;;;5068597;28;20579;-90
2023/04/23 09:14:36;;;;;;;29.60;6.50;;;16.60;58.00;;;;;;5067275;28;20296;-91
2023/04/23 09:17:03;;;;;;;24.77;6.30;;;16.60;58.00;;;;;;5066951;28;20207;-91
2023/04/23 09:19:31;;;;;;;39.37;6.83;;;16.60;58.00;;;;;;5066429;28;20300;-90
2023/04/23 09:22:00;;;;;;;24.10;6.00;;;16.60;58.00;;;;;;5066308;28;20198;-90
2023/04/23 09:24:28;;;;;;;24.47;6.00;;;16.70;58.20;;;;;;5066203;28;21062;-90
2023/04/23 09:26:58;;;;;;;23.90;6.00;;;16.70;58.10;;;;;;5067639;28;20216;-89
2023/04/23 09:29:25;;;;;;;31.30;6.73;;;16.70;58.10;;;;;;5066142;28;20230;-89
2023/04/23 09:31:54;;;;;;;27.93;6.80;;;16.70;58.10;;;;;;5066961;28;20203;-90
2023/04/23 09:34:23;;;;;;;26.17;6.27;;;16.80;58.20;;;;;;5066934;28;20207;-90
2023/04/23 09:36:51;;;;;;;23.10;6.23;;;16.80;58.20;;;;;;5067018;28;20206;-89
2023/04/23 09:39:21;;;;;;;26.03;5.67;;;16.80;58.80;;;;;;5066695;28;20717;-90
2023/04/23 09:41:50;;;;;;;21.67;6.23;;;16.80;58.30;;;;;;5066764;28;20246;-90
2023/04/23 09:44:21;;;;;;;25.60;6.60;;;16.80;58.20;;;;;;5065546;28;20240;-90
2023/04/23 09:46:48;;;;;;;28.97;6.47;;;16.80;58.20;;;;;;5071017;28;20229;-90
2023/04/23 09:49:15;;;;;;;26.70;6.37;;;16.80;58.10;;;;;;5070457;28;20588;-91
2023/04/23 09:51:45;;;;;;;24.63;6.23;;;16.80;58.20;;;;;;5071238;28;20290;-90
2023/04/23 09:54:13;;;;;;;26.23;6.40;;;16.90;58.30;;;;;;5072049;28;20746;-90
2023/04/23 09:56:41;;;;;;;49.70;7.57;;;16.90;58.30;;;;;;5069868;28;20566;-91
2023/04/23 09:59:20;;;;;;;42.03;7.63;;;16.90;58.30;;;;;;5071506;28;20288;-91
2023/04/23 10:01:47;;;;;;;29.57;6.83;;;17.00;58.50;;;;;;5069533;28;20263;-91
2023/04/23 10:04:19;;;;;;;24.73;6.30;;;17.00;58.30;;;;;;5070988;28;20309;-92
2023/04/23 10:06:47;;;;;;;48.80;8.00;;;17.00;58.40;;;;;;5070506;28;20283;-90
2023/04/23 10:09:14;;;;;;;28.50;6.10;;;17.00;58.30;;;;;;5072191;28;20238;-91
2023/04/23 10:11:43;;;;;;;49.33;8.80;;;17.00;58.30;;;;;;5069966;28;20521;-91
2023/04/23 10:14:10;;;;;;;28.17;6.47;;;17.00;58.40;;;;;;5067416;28;20214;-91
2023/04/23 10:16:39;;;;;;;28.23;6.43;;;17.00;58.40;;;;;;5071808;28;20274;-91
2023/04/23 10:19:10;;;;;;;28.83;6.73;;;17.00;58.40;;;;;;5065402;28;20211;-91
2023/04/23 10:21:38;;;;;;;43.13;7.80;;;17.00;58.40;;;;;;5070845;28;20230;-91
2023/04/23 10:24:07;;;;;;;32.27;6.70;;;17.10;58.50;;;;;;5070906;28;20290;-90
2023/04/23 10:26:38;;;;;;;30.17;7.13;;;17.10;58.50;;;;;;5065716;28;20207;-90
2023/04/23 10:29:12;;;;;;;26.43;6.40;;;17.10;58.50;;;;;;5080448;28;20838;-91
2023/04/23 10:31:39;;;;;;;33.70;7.33;;;17.10;58.50;;;;;;5054684;28;20203;-91
2023/04/23 10:34:07;;;;;;;21.53;5.87;;;17.10;58.50;;;;;;5067277;28;20203;-90
2023/04/23 10:36:34;;;;;;;29.20;6.23;;;17.20;58.50;;;;;;5071571;28;20211;-91
2023/04/23 10:39:06;;;;;;;19.00;5.97;;;17.10;58.50;;;;;;5071164;28;20290;-90
2023/04/23 10:41:36;;;;;;;27.57;6.53;;;17.20;58.60;;;;;;5060844;28;20214;-90
2023/04/23 10:44:04;;;;;;;28.97;6.43;;;17.20;58.60;;;;;;5063301;28;20280;-91
2023/04/23 10:46:34;;;;;;;27.87;6.23;;;17.20;58.60;;;;;;5067593;28;20297;-91
2023/04/23 10:49:13;;;;;;;24.63;5.90;;;17.20;58.60;;;;;;5067463;28;20228;-91
2023/04/23 10:52:13;;;;;;;46.47;7.90;;;17.20;58.60;;;;;;5071033;28;20293;-91
2023/04/23 10:54:41;;;;;;;19.47;5.37;;;17.20;58.60;;;;;;5016108;28;20206;-90
2023/04/23 10:57:09;;;;;;;25.63;6.00;;;17.20;58.50;;;;;;5070781;28;20547;-91
2023/04/23 10:59:53;;;;;;;31.33;6.30;;;17.20;58.60;;;;;;5065865;28;20230;-90
2023/04/23 11:02:23;;;;;;;25.73;5.90;;;17.20;58.60;;;;;;5063467;28;20214;-90
2023/04/23 11:04:55;;;;;;;29.83;6.67;;;17.20;58.60;;;;;;5066319;28;20286;-91
2023/04/23 11:07:26;;;;;;;26.37;6.27;;;17.30;58.70;;;;;;5069021;28;20203;-90
2023/04/23 11:09:55;;;;;;;24.33;6.07;;;17.30;58.70;;;;;;5068774;28;20288;-90
2023/04/23 11:12:32;;;;;;;44.40;7.50;;;17.30;58.60;;;;;;5069372;28;20303;-90
2023/04/23 11:15:09;;;;;;;23.40;5.40;;;17.30;58.70;;;;;;5068494;28;20200;-90
2023/04/23 11:18:00;;;;;;;27.13;6.13;;;17.30;58.60;;;;;;5069527;28;20676;-90
2023/04/23 11:20:27;;;;;;;22.23;5.63;;;17.30;58.70;;;;;;5059525;28;20293;-90
2023/04/23 11:22:54;;;;;;;26.60;6.03;;;17.40;58.70;;;;;;5070450;28;20288;-90
2023/04/23 11:25:23;;;;;;;20.60;5.67;;;17.40;58.70;;;;;;5069920;28;20206;-90
2023/04/23 11:27:51;;;;;;;36.23;7.03;;;17.40;58.80;;;;;;5069309;28;20698;-90
2023/04/23 11:30:22;;;;;;;27.47;5.63;;;17.40;58.80;;;;;;5069207;28;20305;-90
2023/04/23 11:32:51;;;;;;;27.67;5.77;;;17.40;58.70;;;;;;5069726;28;20309;-91
2023/04/23 11:35:20;;;;;;;27.63;6.17;;;17.40;58.80;;;;;;5070443;28;20309;-91
2023/04/23 11:37:49;;;;;;;23.67;6.07;;;17.40;58.80;;;;;;5069301;28;20296;-90
2023/04/23 11:40:18;;;;;;;28.43;6.10;;;17.40;58.80;;;;;;5055496;28;20294;-91
2023/04/23 11:42:46;;;;;;;24.97;5.40;;;17.40;58.80;;;;;;5058910;28;20202;-92
2023/04/23 11:45:18;;;;;;;25.13;5.50;;;17.40;58.80;;;;;;5070203;28;20290;-92
2023/04/23 11:47:45;;;;;;;24.40;5.67;;;17.50;58.90;;;;;;5067635;28;20316;-91
2023/04/23 11:50:19;;;;;;;25.37;5.67;;;17.40;58.80;;;;;;5069166;28;20210;-90
2023/04/23 11:52:47;;;;;;;24.23;5.77;;;17.50;58.90;;;;;;5065451;28;20209;-91
2023/04/23 11:55:15;;;;;;;31.30;6.00;;;17.50;58.90;;;;;;5066421;28;20239;-90
2023/04/23 11:57:43;;;;;;;28.33;5.73;;;17.50;58.90;;;;;;5049580;28;20301;-90
2023/04/23 12:00:16;;;;;;;26.80;5.60;;;17.50;58.90;;;;;;5069027;28;20657;-90
2023/04/23 12:02:54;;;;;;;44.30;7.17;;;17.50;58.90;;;;;;5067887;28;20286;-91
2023/04/23 12:05:23;;;;;;;28.73;5.77;;;17.50;58.90;;;;;;5067916;28;20260;-91
2023/04/23 12:07:51;;;;;;;22.53;5.23;;;17.60;58.90;;;;;;5068090;28;20234;-93
2023/04/23 12:10:20;;;;;;;33.07;5.93;;;17.50;58.80;;;;;;5070118;28;20558;-92
2023/04/23 12:12:51;;;;;;;29.83;6.03;;;17.60;58.90;;;;;;5069088;28;20726;-92
2023/04/23 12:15:18;;;;;;;23.33;5.20;;;17.60;58.90;;;;;;5049769;28;20214;-92
2023/04/23 12:17:50;;;;;;;25.77;5.37;;;17.60;58.90;;;;;;5050960;28;20223;-92
2023/04/23 12:20:19;;;;;;;26.03;5.63;;;17.60;58.90;;;;;;5069673;28;20238;-92
2023/04/23 12:22:48;;;;;;;25.13;5.37;;;17.60;58.90;;;;;;5069370;28;20210;-92
2023/04/23 12:25:15;;;;;;;22.83;5.40;;;17.60;58.90;;;;;;5068996;28;20734;-91
2023/04/23 12:27:45;;;;;;;23.83;5.33;;;17.60;58.90;;;;;;5069439;28;20206;-91
2023/04/23 12:30:13;;;;;;;28.73;5.97;;;17.60;58.90;;;;;;5067958;28;20729;-92
2023/04/23 12:32:41;;;;;;;25.63;5.40;;;17.60;59.00;;;;;;5069119;28;20194;-91
2023/04/23 12:35:10;;;;;;;24.87;5.47;;;17.60;59.50;;;;;;5068964;28;20234;-91
2023/04/23 12:37:37;;;;;;;32.67;6.33;;;17.60;58.90;;;;;;5064912;28;20198;-91